sensor_id;sensor_type;location;lat;lon;timestamp;pressure;altitude;pressure_sealevel;temperature;humidity
37852;BME280;23691;52.486;4.650;2022-12-17T00:00:29;102257.69;;;-0.87;77.39
37852;BME280;23691;52.486;4.650;2022-12-17T00:03:13;102265.66;;;-0.89;77.36
37852;BME280;23691;52.486;4.650;2022-12-17T00:05:58;102265.66;;;-0.89;77.23
37852;BME280;23691;52.486;4.650;2022-12-17T00:08:42;102270.09;;;-0.91;77.47
37852;BME280;23691;52.486;4.650;2022-12-17T00:11:29;102260.44;;;-0.90;77.60
37852;BME280;23691;52.486;4.650;2022-12-17T00:14:12;102249.94;;;-0.90;77.41
37852;BME280;23691;52.486;4.650;2022-12-17T00:16:56;102242.91;;;-0.90;77.46
37852;BME280;23691;52.486;4.650;2022-12-17T00:19:40;102250.03;;;-0.93;77.62
37852;BME280;23691;52.486;4.650;2022-12-17T00:22:24;102256.16;;;-0.93;78.06
37852;BME280;23691;52.486;4.650;2022-12-17T00:25:10;102257.00;;;-0.92;77.68
37852;BME280;23691;52.486;4.650;2022-12-17T00:27:56;102259.50;;;-0.89;78.02
37852;BME280;23691;52.486;4.650;2022-12-17T00:30:40;102256.88;;;-0.89;77.92
37852;BME280;23691;52.486;4.650;2022-12-17T00:33:23;102255.19;;;-0.90;78.33
37852;BME280;23691;52.486;4.650;2022-12-17T00:36:09;102262.13;;;-0.89;78.46
37852;BME280;23691;52.486;4.650;2022-12-17T00:38:53;102265.56;;;-0.87;78.21
37852;BME280;23691;52.486;4.650;2022-12-17T00:41:37;102264.59;;;-0.84;78.47
37852;BME280;23691;52.486;4.650;2022-12-17T00:44:21;102264.56;;;-0.83;78.30
37852;BME280;23691;52.486;4.650;2022-12-17T00:47:05;102266.25;;;-0.82;78.32
37852;BME280;23691;52.486;4.650;2022-12-17T00:49:49;102268.84;;;-0.80;78.39
37852;BME280;23691;52.486;4.650;2022-12-17T00:52:33;102268.75;;;-0.79;78.36
37852;BME280;23691;52.486;4.650;2022-12-17T00:55:17;102262.78;;;-0.82;78.27
37852;BME280;23691;52.486;4.650;2022-12-17T00:58:01;102270.63;;;-0.81;78.61
37852;BME280;23691;52.486;4.650;2022-12-17T01:00:46;102267.88;;;-0.78;78.83
37852;BME280;23691;52.486;4.650;2022-12-17T01:03:31;102264.44;;;-0.80;78.94
37852;BME280;23691;52.486;4.650;2022-12-17T01:06:15;102259.00;;;-0.75;78.84
37852;BME280;23691;52.486;4.650;2022-12-17T01:08:59;102263.28;;;-0.73;78.68
37852;BME280;23691;52.486;4.650;2022-12-17T01:11:43;102258.88;;;-0.72;78.80
37852;BME280;23691;52.486;4.650;2022-12-17T01:14:26;102263.25;;;-0.71;78.75
37852;BME280;23691;52.486;4.650;2022-12-17T01:17:11;102261.47;;;-0.71;78.96
37852;BME280;23691;52.486;4.650;2022-12-17T01:19:56;102255.41;;;-0.73;79.18
37852;BME280;23691;52.486;4.650;2022-12-17T01:22:40;102267.91;;;-0.79;79.10
37852;BME280;23691;52.486;4.650;2022-12-17T01:25:24;102267.03;;;-0.78;79.30
37852;BME280;23691;52.486;4.650;2022-12-17T01:28:09;102280.88;;;-0.75;79.35
37852;BME280;23691;52.486;4.650;2022-12-17T01:30:57;102270.25;;;-0.72;79.36
37852;BME280;23691;52.486;4.650;2022-12-17T01:33:41;102269.41;;;-0.72;79.31
37852;BME280;23691;52.486;4.650;2022-12-17T01:36:25;102281.66;;;-0.71;79.30
37852;BME280;23691;52.486;4.650;2022-12-17T01:39:09;102285.34;;;-0.77;79.25
37852;BME280;23691;52.486;4.650;2022-12-17T01:41:52;102282.66;;;-0.75;79.79
37852;BME280;23691;52.486;4.650;2022-12-17T01:44:52;102292.16;;;-0.71;79.69
37852;BME280;23691;52.486;4.650;2022-12-17T01:50:26;102278.94;;;-0.70;79.69
37852;BME280;23691;52.486;4.650;2022-12-17T01:53:11;102284.19;;;-0.70;79.91
37852;BME280;23691;52.486;4.650;2022-12-17T01:55:55;102290.28;;;-0.68;80.18
37852;BME280;23691;52.486;4.650;2022-12-17T01:58:40;102288.44;;;-0.66;79.70
37852;BME280;23691;52.486;4.650;2022-12-17T02:01:25;102291.25;;;-0.70;80.42
37852;BME280;23691;52.486;4.650;2022-12-17T02:10:59;102304.13;;;-0.64;80.08
37852;BME280;23691;52.486;4.650;2022-12-17T02:14:06;102311.13;;;-0.63;80.26
37852;BME280;23691;52.486;4.650;2022-12-17T02:17:00;102315.53;;;-0.63;80.01
37852;BME280;23691;52.486;4.650;2022-12-17T02:20:07;102319.00;;;-0.63;80.16
37852;BME280;23691;52.486;4.650;2022-12-17T02:25:58;102312.91;;;-0.63;79.93
37852;BME280;23691;52.486;4.650;2022-12-17T02:28:47;102319.88;;;-0.62;80.44
37852;BME280;23691;52.486;4.650;2022-12-17T02:31:33;102322.38;;;-0.59;80.52
37852;BME280;23691;52.486;4.650;2022-12-17T02:34:18;102328.53;;;-0.59;80.42
37852;BME280;23691;52.486;4.650;2022-12-17T02:37:02;102321.47;;;-0.58;80.36
37852;BME280;23691;52.486;4.650;2022-12-17T02:39:47;102323.25;;;-0.59;80.61
37852;BME280;23691;52.486;4.650;2022-12-17T02:42:31;102321.38;;;-0.55;80.33
37852;BME280;23691;52.486;4.650;2022-12-17T02:45:16;102326.56;;;-0.54;80.34
37852;BME280;23691;52.486;4.650;2022-12-17T02:48:05;102320.44;;;-0.54;80.42
37852;BME280;23691;52.486;4.650;2022-12-17T02:50:52;102323.06;;;-0.54;80.53
37852;BME280;23691;52.486;4.650;2022-12-17T02:53:44;102325.78;;;-0.56;80.91
37852;BME280;23691;52.486;4.650;2022-12-17T02:56:31;102317.81;;;-0.54;80.71
37852;BME280;23691;52.486;4.650;2022-12-17T02:59:18;102327.47;;;-0.55;80.99
37852;BME280;23691;52.486;4.650;2022-12-17T03:02:03;102326.63;;;-0.55;80.68
37852;BME280;23691;52.486;4.650;2022-12-17T03:04:47;102320.56;;;-0.57;80.96
37852;BME280;23691;52.486;4.650;2022-12-17T03:07:33;102310.00;;;-0.56;80.87
37852;BME280;23691;52.486;4.650;2022-12-17T03:10:17;102309.88;;;-0.53;80.88
37852;BME280;23691;52.486;4.650;2022-12-17T03:13:01;102316.06;;;-0.54;80.77
37852;BME280;23691;52.486;4.650;2022-12-17T03:15:47;102318.69;;;-0.54;80.62
37852;BME280;23691;52.486;4.650;2022-12-17T03:18:34;102322.97;;;-0.51;80.77
37852;BME280;23691;52.486;4.650;2022-12-17T03:21:18;102321.31;;;-0.54;81.07
37852;BME280;23691;52.486;4.650;2022-12-17T03:24:02;102318.72;;;-0.55;81.00
37852;BME280;23691;52.486;4.650;2022-12-17T03:26:46;102319.53;;;-0.53;80.94
37852;BME280;23691;52.486;4.650;2022-12-17T03:29:29;102322.28;;;-0.56;81.06
37852;BME280;23691;52.486;4.650;2022-12-17T03:32:14;102318.78;;;-0.57;80.92
37852;BME280;23691;52.486;4.650;2022-12-17T03:34:58;102322.34;;;-0.58;81.20
37852;BME280;23691;52.486;4.650;2022-12-17T03:37:44;102324.22;;;-0.61;81.23
37852;BME280;23691;52.486;4.650;2022-12-17T03:40:29;102319.75;;;-0.59;81.58
37852;BME280;23691;52.486;4.650;2022-12-17T03:43:13;102330.22;;;-0.58;81.71
37852;BME280;23691;52.486;4.650;2022-12-17T03:45:57;102330.84;;;-0.51;81.65
37852;BME280;23691;52.486;4.650;2022-12-17T03:48:44;102335.06;;;-0.47;81.37
37852;BME280;23691;52.486;4.650;2022-12-17T03:51:28;102334.97;;;-0.44;81.70
37852;BME280;23691;52.486;4.650;2022-12-17T03:54:12;102336.63;;;-0.41;81.63
37852;BME280;23691;52.486;4.650;2022-12-17T03:56:58;102336.72;;;-0.45;81.50
37852;BME280;23691;52.486;4.650;2022-12-17T03:59:45;102337.66;;;-0.46;81.51
37852;BME280;23691;52.486;4.650;2022-12-17T04:02:30;102336.56;;;-0.40;81.41
37852;BME280;23691;52.486;4.650;2022-12-17T04:05:13;102327.78;;;-0.39;81.36
37852;BME280;23691;52.486;4.650;2022-12-17T04:07:57;102331.13;;;-0.35;81.63
37852;BME280;23691;52.486;4.650;2022-12-17T04:10:41;102336.22;;;-0.31;81.53
37852;BME280;23691;52.486;4.650;2022-12-17T04:13:25;102336.19;;;-0.29;81.52
37852;BME280;23691;52.486;4.650;2022-12-17T04:16:10;102331.91;;;-0.32;81.64
37852;BME280;23691;52.486;4.650;2022-12-17T04:19:08;102334.44;;;-0.30;81.58
37852;BME280;23691;52.486;4.650;2022-12-17T04:21:52;102334.31;;;-0.27;81.53
37852;BME280;23691;52.486;4.650;2022-12-17T04:24:37;102328.16;;;-0.26;81.75
37852;BME280;23691;52.486;4.650;2022-12-17T04:27:21;102342.13;;;-0.24;81.46
37852;BME280;23691;52.486;4.650;2022-12-17T04:30:06;102328.00;;;-0.22;81.59
37852;BME280;23691;52.486;4.650;2022-12-17T04:32:50;102333.31;;;-0.23;81.54
37852;BME280;23691;52.486;4.650;2022-12-17T04:35:34;102334.31;;;-0.27;81.65
37852;BME280;23691;52.486;4.650;2022-12-17T04:38:18;102337.88;;;-0.28;81.72
37852;BME280;23691;52.486;4.650;2022-12-17T04:41:03;102340.47;;;-0.27;81.87
37852;BME280;23691;52.486;4.650;2022-12-17T04:43:47;102344.78;;;-0.26;82.05
37852;BME280;23691;52.486;4.650;2022-12-17T04:46:31;102347.38;;;-0.24;82.00
37852;BME280;23691;52.486;4.650;2022-12-17T04:49:15;102349.84;;;-0.19;82.16
37852;BME280;23691;52.486;4.650;2022-12-17T04:51:59;102356.75;;;-0.17;82.06
37852;BME280;23691;52.486;4.650;2022-12-17T04:54:43;102355.03;;;-0.18;82.00
37852;BME280;23691;52.486;4.650;2022-12-17T04:57:29;102360.28;;;-0.18;82.00
37852;BME280;23691;52.486;4.650;2022-12-17T05:00:18;102356.69;;;-0.15;82.24
37852;BME280;23691;52.486;4.650;2022-12-17T05:03:08;102357.38;;;-0.10;82.06
37852;BME280;23691;52.486;4.650;2022-12-17T05:05:54;102355.63;;;-0.10;82.21
37852;BME280;23691;52.486;4.650;2022-12-17T05:08:38;102349.53;;;-0.12;82.08
37852;BME280;23691;52.486;4.650;2022-12-17T05:11:22;102350.34;;;-0.10;82.35
37852;BME280;23691;52.486;4.650;2022-12-17T05:14:08;102351.06;;;-0.06;82.09
37852;BME280;23691;52.486;4.650;2022-12-17T05:16:57;102350.28;;;-0.08;82.04
37852;BME280;23691;52.486;4.650;2022-12-17T05:19:41;102352.91;;;-0.08;81.95
37852;BME280;23691;52.486;4.650;2022-12-17T05:22:25;102353.84;;;-0.09;82.22
37852;BME280;23691;52.486;4.650;2022-12-17T05:25:09;102358.25;;;-0.10;82.25
37852;BME280;23691;52.486;4.650;2022-12-17T05:27:53;102357.47;;;-0.13;82.08
37852;BME280;23691;52.486;4.650;2022-12-17T05:30:36;102364.47;;;-0.12;82.34
37852;BME280;23691;52.486;4.650;2022-12-17T05:33:20;102364.47;;;-0.12;82.55
37852;BME280;23691;52.486;4.650;2022-12-17T05:36:05;102360.78;;;-0.08;82.54
37852;BME280;23691;52.486;4.650;2022-12-17T05:38:49;102363.44;;;-0.08;82.27
37852;BME280;23691;52.486;4.650;2022-12-17T05:41:42;102363.72;;;-0.16;82.36
37852;BME280;23691;52.486;4.650;2022-12-17T05:44:26;102362.13;;;-0.20;82.12
37852;BME280;23691;52.486;4.650;2022-12-17T05:47:13;102365.53;;;-0.18;82.67
37852;BME280;23691;52.486;4.650;2022-12-17T05:49:57;102358.41;;;-0.14;82.51
37852;BME280;23691;52.486;4.650;2022-12-17T05:52:41;102361.72;;;-0.09;82.28
37852;BME280;23691;52.486;4.650;2022-12-17T05:55:24;102362.56;;;-0.09;82.08
37852;BME280;23691;52.486;4.650;2022-12-17T05:58:09;102370.47;;;-0.09;82.08
37852;BME280;23691;52.486;4.650;2022-12-17T06:01:03;102367.97;;;-0.12;82.35
37852;BME280;23691;52.486;4.650;2022-12-17T06:03:47;102365.34;;;-0.12;82.33
37852;BME280;23691;52.486;4.650;2022-12-17T06:06:34;102364.41;;;-0.11;82.26
37852;BME280;23691;52.486;4.650;2022-12-17T06:09:18;102364.41;;;-0.11;82.08
37852;BME280;23691;52.486;4.650;2022-12-17T06:12:02;102374.06;;;-0.11;82.16
37852;BME280;23691;52.486;4.650;2022-12-17T06:14:46;102370.63;;;-0.13;81.78
37852;BME280;23691;52.486;4.650;2022-12-17T06:17:30;102377.69;;;-0.14;81.99
37852;BME280;23691;52.486;4.650;2022-12-17T06:20:14;102372.63;;;-0.20;82.08
37852;BME280;23691;52.486;4.650;2022-12-17T06:25:43;102376.03;;;-0.16;82.07
37852;BME280;23691;52.486;4.650;2022-12-17T06:28:27;102378.81;;;-0.21;82.04
37852;BME280;23691;52.486;4.650;2022-12-17T06:31:11;102377.22;;;-0.25;82.37
37852;BME280;23691;52.486;4.650;2022-12-17T06:33:56;102386.00;;;-0.25;81.96
37852;BME280;23691;52.486;4.650;2022-12-17T06:36:44;102389.50;;;-0.26;82.43
37852;BME280;23691;52.486;4.650;2022-12-17T06:39:27;102395.63;;;-0.25;82.24
37852;BME280;23691;52.486;4.650;2022-12-17T06:42:12;102409.53;;;-0.22;82.36
37852;BME280;23691;52.486;4.650;2022-12-17T06:44:57;102406.09;;;-0.24;82.29
37852;BME280;23691;52.486;4.650;2022-12-17T06:47:41;102404.31;;;-0.23;81.83
37852;BME280;23691;52.486;4.650;2022-12-17T06:50:25;102405.97;;;-0.20;81.71
37852;BME280;23691;52.486;4.650;2022-12-17T06:53:09;102401.66;;;-0.22;81.88
37852;BME280;23691;52.486;4.650;2022-12-17T06:55:56;102401.69;;;-0.23;82.16
37852;BME280;23691;52.486;4.650;2022-12-17T06:58:45;102404.56;;;-0.29;82.20
37852;BME280;23691;52.486;4.650;2022-12-17T07:01:29;102405.47;;;-0.30;82.12
37852;BME280;23691;52.486;4.650;2022-12-17T07:04:13;102405.59;;;-0.33;82.23
37852;BME280;23691;52.486;4.650;2022-12-17T07:06:57;102416.16;;;-0.35;82.24
37852;BME280;23691;52.486;4.650;2022-12-17T07:09:41;102402.16;;;-0.35;82.14
37852;BME280;23691;52.486;4.650;2022-12-17T07:12:25;102402.09;;;-0.34;82.20
37852;BME280;23691;52.486;4.650;2022-12-17T07:15:09;102407.28;;;-0.32;82.35
37852;BME280;23691;52.486;4.650;2022-12-17T07:17:58;102410.72;;;-0.30;82.16
37852;BME280;23691;52.486;4.650;2022-12-17T07:20:43;102418.69;;;-0.32;81.92
37852;BME280;23691;52.486;4.650;2022-12-17T07:23:28;102431.03;;;-0.34;81.77
37852;BME280;23691;52.486;4.650;2022-12-17T07:26:13;102419.69;;;-0.36;82.29
37852;BME280;23691;52.486;4.650;2022-12-17T07:28:57;102423.41;;;-0.41;81.99
37852;BME280;23691;52.486;4.650;2022-12-17T07:31:42;102429.53;;;-0.41;82.25
37852;BME280;23691;52.486;4.650;2022-12-17T07:34:26;102427.88;;;-0.44;82.35
37852;BME280;23691;52.486;4.650;2022-12-17T07:37:10;102428.75;;;-0.45;82.52
37852;BME280;23691;52.486;4.650;2022-12-17T07:39:54;102427.03;;;-0.44;82.33
37852;BME280;23691;52.486;4.650;2022-12-17T07:42:40;102439.28;;;-0.45;82.35
37852;BME280;23691;52.486;4.650;2022-12-17T07:45:25;102449.88;;;-0.46;82.50
37852;BME280;23691;52.486;4.650;2022-12-17T07:48:09;102449.81;;;-0.45;82.35
37852;BME280;23691;52.486;4.650;2022-12-17T07:50:55;102447.00;;;-0.40;82.46
37852;BME280;23691;52.486;4.650;2022-12-17T07:53:39;102447.09;;;-0.41;82.34
37852;BME280;23691;52.486;4.650;2022-12-17T07:56:26;102436.59;;;-0.43;82.41
37852;BME280;23691;52.486;4.650;2022-12-17T07:59:09;102446.97;;;-0.38;82.26
37852;BME280;23691;52.486;4.650;2022-12-17T08:01:53;102448.06;;;-0.44;82.12
37852;BME280;23691;52.486;4.650;2022-12-17T08:04:37;102449.03;;;-0.47;82.19
37852;BME280;23691;52.486;4.650;2022-12-17T08:07:21;102441.06;;;-0.45;82.00
37852;BME280;23691;52.486;4.650;2022-12-17T08:10:05;102449.81;;;-0.45;82.24
37852;BME280;23691;52.486;4.650;2022-12-17T08:13:08;102455.06;;;-0.45;82.29
37852;BME280;23691;52.486;4.650;2022-12-17T08:15:52;102454.28;;;-0.47;82.12
37852;BME280;23691;52.486;4.650;2022-12-17T08:18:36;102467.31;;;-0.44;82.26
37852;BME280;23691;52.486;4.650;2022-12-17T08:21:20;102485.59;;;-0.40;82.07
37852;BME280;23691;52.486;4.650;2022-12-17T08:24:05;102473.28;;;-0.38;82.28
37852;BME280;23691;52.486;4.650;2022-12-17T08:26:51;102484.53;;;-0.35;81.99
37852;BME280;23691;52.486;4.650;2022-12-17T08:29:34;102499.56;;;-0.38;82.05
37852;BME280;23691;52.486;4.650;2022-12-17T08:32:19;102500.38;;;-0.36;82.12
37852;BME280;23691;52.486;4.650;2022-12-17T08:35:03;102504.66;;;-0.34;82.15
37852;BME280;23691;52.486;4.650;2022-12-17T08:37:47;102497.53;;;-0.30;82.03
37852;BME280;23691;52.486;4.650;2022-12-17T08:40:31;102505.28;;;-0.27;82.15
37852;BME280;23691;52.486;4.650;2022-12-17T08:43:15;102512.41;;;-0.29;82.00
37852;BME280;23691;52.486;4.650;2022-12-17T08:45:58;102501.78;;;-0.26;82.11
37852;BME280;23691;52.486;4.650;2022-12-17T08:48:42;102504.25;;;-0.22;81.97
37852;BME280;23691;52.486;4.650;2022-12-17T08:51:26;102498.88;;;-0.18;81.72
37852;BME280;23691;52.486;4.650;2022-12-17T08:54:10;102510.03;;;-0.12;81.63
37852;BME280;23691;52.486;4.650;2022-12-17T08:56:54;102512.59;;;-0.10;81.64
37852;BME280;23691;52.486;4.650;2022-12-17T08:59:44;102507.28;;;-0.09;81.77
37852;BME280;23691;52.486;4.650;2022-12-17T09:02:44;102521.25;;;-0.07;81.47
37852;BME280;23691;52.486;4.650;2022-12-17T09:05:28;102514.78;;;0.02;81.89
37852;BME280;23691;52.486;4.650;2022-12-17T09:08:12;102514.41;;;0.13;81.89
37852;BME280;23691;52.486;4.650;2022-12-17T09:10:58;102512.41;;;0.19;81.69
37852;BME280;23691;52.486;4.650;2022-12-17T09:13:42;102511.38;;;0.24;81.70
37852;BME280;23691;52.486;4.650;2022-12-17T09:16:26;102514.66;;;0.30;81.74
37852;BME280;23691;52.486;4.650;2022-12-17T09:19:10;102519.78;;;0.33;81.47
37852;BME280;23691;52.486;4.650;2022-12-17T09:21:54;102518.78;;;0.37;81.83
37852;BME280;23691;52.486;4.650;2022-12-17T09:24:38;102518.69;;;0.39;81.75
37852;BME280;23691;52.486;4.650;2022-12-17T09:27:22;102520.25;;;0.45;82.14
37852;BME280;23691;52.486;4.650;2022-12-17T09:30:06;102532.44;;;0.47;81.66
37852;BME280;23691;52.486;4.650;2022-12-17T09:32:50;102535.00;;;0.49;81.37
37852;BME280;23691;52.486;4.650;2022-12-17T09:35:36;102549.91;;;0.50;81.94
37852;BME280;23691;52.486;4.650;2022-12-17T09:38:21;102554.28;;;0.49;81.73
37852;BME280;23691;52.486;4.650;2022-12-17T09:41:25;102545.50;;;0.50;81.72
37852;BME280;23691;52.486;4.650;2022-12-17T09:50:04;102559.53;;;0.51;81.72
37852;BME280;23691;52.486;4.650;2022-12-17T09:52:51;102553.28;;;0.53;81.73
37852;BME280;23691;52.486;4.650;2022-12-17T09:55:52;102559.22;;;0.58;81.57
37852;BME280;23691;52.486;4.650;2022-12-17T09:58:38;102560.84;;;0.62;81.54
37852;BME280;23691;52.486;4.650;2022-12-17T10:01:26;102545.94;;;0.61;81.49
37852;BME280;23691;52.486;4.650;2022-12-17T10:04:33;102558.88;;;0.68;81.47
37852;BME280;23691;52.486;4.650;2022-12-17T10:07:22;102565.75;;;0.72;81.57
37852;BME280;23691;52.486;4.650;2022-12-17T10:10:22;102559.56;;;0.73;81.38
37852;BME280;23691;52.486;4.650;2022-12-17T10:13:27;102554.00;;;0.80;81.45
37852;BME280;23691;52.486;4.650;2022-12-17T10:16:27;102554.63;;;0.87;81.20
37852;BME280;23691;52.486;4.650;2022-12-17T10:19:31;102554.44;;;0.92;81.22
37852;BME280;23691;52.486;4.650;2022-12-17T10:22:19;102547.41;;;0.92;81.19
37852;BME280;23691;52.486;4.650;2022-12-17T10:25:17;102549.78;;;0.98;81.05
37852;BME280;23691;52.486;4.650;2022-12-17T10:28:05;102543.44;;;1.04;80.94
37852;BME280;23691;52.486;4.650;2022-12-17T10:30:49;102552.22;;;1.03;81.23
37852;BME280;23691;52.486;4.650;2022-12-17T10:33:38;102544.16;;;1.07;81.15
37852;BME280;23691;52.486;4.650;2022-12-17T10:36:23;102542.06;;;1.16;80.62
37852;BME280;23691;52.486;4.650;2022-12-17T10:39:17;102547.94;;;1.22;80.72
37852;BME280;23691;52.486;4.650;2022-12-17T10:42:16;102542.47;;;1.27;80.59
37852;BME280;23691;52.486;4.650;2022-12-17T10:45:17;102548.41;;;1.32;80.55
37852;BME280;23691;52.486;4.650;2022-12-17T10:48:02;102550.88;;;1.37;80.61
37852;BME280;23691;52.486;4.650;2022-12-17T10:50:46;102554.22;;;1.40;80.42
37852;BME280;23691;52.486;4.650;2022-12-17T10:53:30;102555.03;;;1.42;80.52
37852;BME280;23691;52.486;4.650;2022-12-17T10:56:24;102544.25;;;1.48;80.56
37852;BME280;23691;52.486;4.650;2022-12-17T10:59:28;102551.09;;;1.53;80.48
37852;BME280;23691;52.486;4.650;2022-12-17T11:02:20;102549.13;;;1.58;80.73
37852;BME280;23691;52.486;4.650;2022-12-17T11:05:13;102551.78;;;1.58;80.28
37852;BME280;23691;52.486;4.650;2022-12-17T11:07:58;102552.81;;;1.54;80.77
37852;BME280;23691;52.486;4.650;2022-12-17T11:10:44;102542.50;;;1.47;80.30
37852;BME280;23691;52.486;4.650;2022-12-17T11:13:40;102539.09;;;1.45;80.22
37852;BME280;23691;52.486;4.650;2022-12-17T11:16:32;102539.88;;;1.47;80.53
37852;BME280;23691;52.486;4.650;2022-12-17T11:22:38;102538.03;;;1.49;80.39
37852;BME280;23691;52.486;4.650;2022-12-17T11:25:30;102540.66;;;1.49;80.32
37852;BME280;23691;52.486;4.650;2022-12-17T11:28:26;102535.25;;;1.53;80.35
37852;BME280;23691;52.486;4.650;2022-12-17T11:37:14;102547.41;;;1.57;79.80
37852;BME280;23691;52.486;4.650;2022-12-17T11:43:37;102553.16;;;1.66;79.67
37852;BME280;23691;52.486;4.650;2022-12-17T11:52:30;102549.72;;;1.64;79.21
37852;BME280;23691;52.486;4.650;2022-12-17T11:55:50;102535.66;;;1.64;79.37
37852;BME280;23691;52.486;4.650;2022-12-17T11:58:50;102542.78;;;1.62;79.17
37852;BME280;23691;52.486;4.650;2022-12-17T12:10:43;102542.75;;;1.63;79.05
37852;BME280;23691;52.486;4.650;2022-12-17T12:13:52;102542.78;;;1.62;79.04
37852;BME280;23691;52.486;4.650;2022-12-17T12:19:53;102546.28;;;1.62;78.83
37852;BME280;23691;52.486;4.650;2022-12-17T12:22:53;102535.72;;;1.62;78.73
37852;BME280;23691;52.486;4.650;2022-12-17T12:28:43;102537.50;;;1.62;78.82
37852;BME280;23691;52.486;4.650;2022-12-17T12:31:35;102541.81;;;1.64;78.48
37852;BME280;23691;52.486;4.650;2022-12-17T12:34:26;102543.63;;;1.62;78.57
37852;BME280;23691;52.486;4.650;2022-12-17T12:37:16;102540.09;;;1.63;78.61
37852;BME280;23691;52.486;4.650;2022-12-17T12:43:36;102541.00;;;1.62;78.27
37852;BME280;23691;52.486;4.650;2022-12-17T12:46:35;102545.38;;;1.63;78.26
37852;BME280;23691;52.486;4.650;2022-12-17T12:49:36;102538.25;;;1.65;78.27
37852;BME280;23691;52.486;4.650;2022-12-17T12:52:24;102544.56;;;1.61;78.17
37852;BME280;23691;52.486;4.650;2022-12-17T12:55:09;102546.41;;;1.59;78.09
37852;BME280;23691;52.486;4.650;2022-12-17T12:58:43;102548.25;;;1.57;78.01
37852;BME280;23691;52.486;4.650;2022-12-17T13:01:08;102541.22;;;1.58;78.33
37852;BME280;23691;52.486;4.650;2022-12-17T13:03:54;102536.81;;;1.58;78.23
37852;BME280;23691;52.486;4.650;2022-12-17T13:06:50;102541.13;;;1.59;78.11
37852;BME280;23691;52.486;4.650;2022-12-17T13:14:44;102533.22;;;1.59;77.47
37852;BME280;23691;52.486;4.650;2022-12-17T13:24:50;102532.19;;;1.63;77.63
37852;BME280;23691;52.486;4.650;2022-12-17T13:27:35;102534.69;;;1.66;77.46
37852;BME280;23691;52.486;4.650;2022-12-17T13:33:11;102537.19;;;1.69;77.07
37852;BME280;23691;52.486;4.650;2022-12-17T13:35:50;102536.47;;;1.66;76.96
37852;BME280;23691;52.486;4.650;2022-12-17T13:43:54;102522.34;;;1.67;77.07
37852;BME280;23691;52.486;4.650;2022-12-17T13:46:27;102522.22;;;1.70;77.45
37852;BME280;23691;52.486;4.650;2022-12-17T13:49:00;102520.63;;;1.66;76.95
37852;BME280;23691;52.486;4.650;2022-12-17T13:51:29;102521.50;;;1.66;77.15
37852;BME280;23691;52.486;4.650;2022-12-17T13:53:56;102527.72;;;1.65;77.02
37852;BME280;23691;52.486;4.650;2022-12-17T13:56:24;102525.88;;;1.67;77.14
37852;BME280;23691;52.486;4.650;2022-12-17T13:58:52;102532.84;;;1.68;76.99
37852;BME280;23691;52.486;4.650;2022-12-17T14:01:18;102531.13;;;1.67;77.14
37852;BME280;23691;52.486;4.650;2022-12-17T14:03:49;102538.97;;;1.69;77.05
37852;BME280;23691;52.486;4.650;2022-12-17T14:06:15;102546.84;;;1.70;77.06
37852;BME280;23691;52.486;4.650;2022-12-17T14:08:41;102552.97;;;1.71;76.91
37852;BME280;23691;52.486;4.650;2022-12-17T14:11:07;102545.03;;;1.71;76.91
37852;BME280;23691;52.486;4.650;2022-12-17T14:13:50;102552.03;;;1.72;77.01
37852;BME280;23691;52.486;4.650;2022-12-17T14:16:17;102549.38;;;1.72;77.09
37852;BME280;23691;52.486;4.650;2022-12-17T14:18:46;102551.03;;;1.75;77.04
37852;BME280;23691;52.486;4.650;2022-12-17T14:21:12;102555.59;;;1.71;76.73
37852;BME280;23691;52.486;4.650;2022-12-17T14:23:38;102551.03;;;1.75;76.84
37852;BME280;23691;52.486;4.650;2022-12-17T14:26:08;102548.34;;;1.76;76.57
37852;BME280;23691;52.486;4.650;2022-12-17T14:28:43;102555.31;;;1.77;76.51
37852;BME280;23691;52.486;4.650;2022-12-17T14:31:18;102552.78;;;1.76;77.02
37852;BME280;23691;52.486;4.650;2022-12-17T14:33:44;102554.56;;;1.75;76.78
37852;BME280;23691;52.486;4.650;2022-12-17T14:36:21;102558.84;;;1.78;76.59
37852;BME280;23691;52.486;4.650;2022-12-17T14:38:53;102566.03;;;1.74;76.68
37852;BME280;23691;52.486;4.650;2022-12-17T14:41:18;102571.38;;;1.73;76.72
37852;BME280;23691;52.486;4.650;2022-12-17T14:44:02;102568.94;;;1.68;76.98
37852;BME280;23691;52.486;4.650;2022-12-17T14:46:29;102562.81;;;1.67;77.14
37852;BME280;23691;52.486;4.650;2022-12-17T14:48:56;102567.38;;;1.62;76.92
37852;BME280;23691;52.486;4.650;2022-12-17T14:51:37;102568.31;;;1.61;77.46
37852;BME280;23691;52.486;4.650;2022-12-17T14:56:38;102585.66;;;1.67;77.03
37852;BME280;23691;52.486;4.650;2022-12-17T14:59:04;102576.06;;;1.66;76.97
37852;BME280;23691;52.486;4.650;2022-12-17T15:01:30;102584.09;;;1.63;76.87
37852;BME280;23691;52.486;4.650;2022-12-17T15:03:55;102588.72;;;1.58;76.81
37852;BME280;23691;52.486;4.650;2022-12-17T15:06:21;102595.88;;;1.54;77.29
37852;BME280;23691;52.486;4.650;2022-12-17T15:08:48;102596.00;;;1.51;76.92
37852;BME280;23691;52.486;4.650;2022-12-17T15:11:19;102602.41;;;1.45;77.12
37852;BME280;23691;52.486;4.650;2022-12-17T15:13:44;102605.09;;;1.44;77.43
37852;BME280;23691;52.486;4.650;2022-12-17T15:16:16;102613.00;;;1.44;77.20
37852;BME280;23691;52.486;4.650;2022-12-17T15:18:49;102615.78;;;1.41;77.14
37852;BME280;23691;52.486;4.650;2022-12-17T15:21:16;102606.25;;;1.37;77.13
37852;BME280;23691;52.486;4.650;2022-12-17T15:23:43;102613.25;;;1.38;77.12
37852;BME280;23691;52.486;4.650;2022-12-17T15:26:14;102614.31;;;1.34;77.39
37852;BME280;23691;52.486;4.650;2022-12-17T15:28:40;102620.69;;;1.28;77.23
37852;BME280;23691;52.486;4.650;2022-12-17T15:31:08;102621.59;;;1.27;77.68
37852;BME280;23691;52.486;4.650;2022-12-17T15:33:33;102618.09;;;1.26;77.78
37852;BME280;23691;52.486;4.650;2022-12-17T15:36:02;102628.88;;;1.20;77.51
37852;BME280;23691;52.486;4.650;2022-12-17T15:38:28;102626.38;;;1.17;77.62
37852;BME280;23691;52.486;4.650;2022-12-17T15:40:53;102631.81;;;1.13;77.44
37852;BME280;23691;52.486;4.650;2022-12-17T15:43:19;102633.84;;;1.06;77.67
37852;BME280;23691;52.486;4.650;2022-12-17T15:45:47;102633.25;;;0.98;77.93